Terminal Aerodrome Forecast
Issued by NWS Topeka, KS

Home | Current Version | Previous Version | Text Only | Print | Product List | Glossary On
Versions: 1 2 3 4 5 6 7 8 9 10 11 12 13 14 15 16 17 18 19
199
FTUS43 KTOP 252326
TAFTOP
TAF
KTOP 252326Z 2600/2624 19004KT P6SM SCT100
     FM260300 18005KT P6SM SKC
     FM261900 18010KT P6SM SKC=

USA.gov is the U.S. government's official web portal to all federal, state and local government web resources and services.